Time;durP1;ratioP1;P1;durP2;ratioP2;P2;SDS_P1;SDS_P2;PMS_P1;PMS_P2;Temp;Humidity;BMP_temperature;BMP_pressure;BME280_temperature;BME280_humidity;BME280_pressure;Samples;Min_cycle;Max_cycle;Signal;HPM_P1;HPM_P2
2021/01/23 00:01:26;;;;;;;3.22;1.90;;;5.70;99.90;;;;;;5043759;28;20079;-48
2021/01/23 00:03:52;;;;;;;3.22;1.83;;;5.70;99.90;;;;;;5046374;28;20013;-49
2021/01/23 00:06:18;;;;;;;2.83;1.80;;;5.60;99.90;;;;;;5047989;28;20110;-49
2021/01/23 00:08:44;;;;;;;2.85;1.55;;;5.70;99.90;;;;;;5047668;28;20817;-48
2021/01/23 00:11:09;;;;;;;2.08;1.55;;;5.60;99.90;;;;;;5062870;28;20133;-51
2021/01/23 00:13:36;;;;;;;3.45;1.90;;;5.60;99.90;;;;;;5068111;28;20028;-48
2021/01/23 00:16:03;;;;;;;1.70;1.35;;;5.60;99.90;;;;;;5066933;28;20031;-50
2021/01/23 00:18:29;;;;;;;2.33;1.45;;;5.80;99.90;;;;;;5067511;28;20025;-51
2021/01/23 00:20:54;;;;;;;2.67;1.75;;;5.90;99.90;;;;;;5066537;28;20039;-52
2021/01/23 00:23:20;;;;;;;3.10;1.95;;;5.90;99.90;;;;;;5066459;28;20021;-48
2021/01/23 00:25:46;;;;;;;3.58;2.22;;;6.10;99.90;;;;;;5067175;28;20028;-49
2021/01/23 00:28:12;;;;;;;4.43;2.35;;;6.00;99.90;;;;;;5067082;28;20700;-49
2021/01/23 00:30:38;;;;;;;3.42;2.15;;;6.10;99.90;;;;;;5067864;28;20068;-49
2021/01/23 00:33:04;;;;;;;4.10;2.30;;;6.10;99.90;;;;;;5067119;28;20106;-48
2021/01/23 00:35:30;;;;;;;3.13;2.10;;;6.00;99.90;;;;;;5067002;28;20043;-51
2021/01/23 00:37:56;;;;;;;4.15;1.98;;;6.00;99.90;;;;;;5066639;28;20032;-50
2021/01/23 00:40:22;;;;;;;2.92;1.88;;;6.00;99.90;;;;;;5067252;28;20027;-51
2021/01/23 00:42:50;;;;;;;4.28;1.92;;;6.00;99.90;;;;;;5067025;28;20107;-49
2021/01/23 00:45:15;;;;;;;3.35;2.10;;;5.90;99.90;;;;;;5066971;28;20106;-52
2021/01/23 00:47:41;;;;;;;3.22;1.85;;;5.90;99.90;;;;;;5051628;28;20056;-52
2021/01/23 00:50:07;;;;;;;3.10;2.00;;;6.00;99.90;;;;;;5047234;28;20108;-52
2021/01/23 00:52:33;;;;;;;2.80;1.88;;;5.90;99.90;;;;;;5046961;28;20021;-48
2021/01/23 00:54:58;;;;;;;2.50;1.90;;;6.00;99.90;;;;;;5046452;28;20040;-48
2021/01/23 00:57:24;;;;;;;4.07;2.42;;;5.90;99.90;;;;;;5046472;28;20017;-51
2021/01/23 00:59:49;;;;;;;2.60;2.10;;;5.90;99.90;;;;;;5045946;28;20029;-49
2021/01/23 01:02:16;;;;;;;3.58;2.65;;;5.90;99.90;;;;;;5046390;28;20025;-49
2021/01/23 01:04:43;;;;;;;8.77;4.45;;;5.90;99.90;;;;;;5058415;28;20031;-51
2021/01/23 01:07:08;;;;;;;5.75;3.15;;;5.70;99.90;;;;;;5067301;28;20556;-47
2021/01/23 01:09:34;;;;;;;5.90;2.97;;;5.60;99.90;;;;;;5065553;28;20037;-48
2021/01/23 01:11:59;;;;;;;4.70;2.75;;;5.60;99.90;;;;;;5066425;28;20036;-49
2021/01/23 01:14:25;;;;;;;4.20;2.40;;;5.70;99.90;;;;;;5063882;28;20044;-49
2021/01/23 01:16:51;;;;;;;3.88;2.40;;;5.70;99.90;;;;;;5064421;28;20036;-49
2021/01/23 01:19:16;;;;;;;3.50;2.00;;;5.70;99.90;;;;;;5065768;28;20446;-51
2021/01/23 01:21:42;;;;;;;3.45;2.03;;;5.70;99.90;;;;;;5065970;28;20518;-49
2021/01/23 01:24:08;;;;;;;2.78;2.00;;;5.60;99.90;;;;;;5065524;28;20925;-50
2021/01/23 01:26:34;;;;;;;3.00;2.40;;;5.60;99.90;;;;;;5066328;28;20021;-49
2021/01/23 01:29:01;;;;;;;4.35;2.20;;;5.10;99.90;;;;;;5065946;28;20043;-49
2021/01/23 01:31:28;;;;;;;2.60;1.75;;;5.20;99.90;;;;;;5066127;28;20533;-48
2021/01/23 01:33:53;;;;;;;2.47;1.80;;;5.10;99.90;;;;;;5064640;28;20043;-48
2021/01/23 01:36:19;;;;;;;1.75;1.55;;;5.20;99.90;;;;;;5066203;28;20028;-49
2021/01/23 01:38:44;;;;;;;3.90;1.85;;;5.20;99.90;;;;;;5065037;28;20067;-52
2021/01/23 01:41:10;;;;;;;1.70;1.42;;;5.10;99.90;;;;;;5046927;28;20024;-51
2021/01/23 01:43:36;;;;;;;2.30;1.60;;;5.30;99.90;;;;;;5066075;28;20032;-50
2021/01/23 01:46:06;;;;;;;2.30;1.60;;;5.30;99.90;;;;;;5060635;28;20033;-49
2021/01/23 01:48:32;;;;;;;3.22;1.92;;;5.10;99.90;;;;;;5046059;28;20620;-48
2021/01/23 01:50:58;;;;;;;2.80;1.55;;;5.10;99.90;;;;;;5046205;28;20105;-51
2021/01/23 01:53:24;;;;;;;4.13;2.42;;;5.20;99.90;;;;;;5046628;28;20526;-49
2021/01/23 01:55:50;;;;;;;4.47;2.30;;;5.20;99.90;;;;;;5046243;28;20021;-49
2021/01/23 01:58:17;;;;;;;4.03;2.22;;;5.10;99.90;;;;;;5045710;28;20636;-48
2021/01/23 02:00:42;;;;;;;5.07;2.10;;;5.20;99.90;;;;;;5046013;28;20021;-49
2021/01/23 02:03:45;;;;;;;3.53;2.10;;;5.20;99.90;;;;;;5046180;28;20510;-49
2021/01/23 02:06:41;;;;;;;4.47;2.97;;;5.20;99.90;;;;;;5045757;28;20091;-49
2021/01/23 02:09:27;;;;;;;4.20;2.53;;;5.30;99.90;;;;;;5046200;28;20028;-51
2021/01/23 02:12:17;;;;;;;4.40;2.00;;;5.10;99.90;;;;;;5045456;28;20036;-47
2021/01/23 02:14:53;;;;;;;1.98;1.30;;;5.00;99.90;;;;;;5045903;28;20040;-49
2021/01/23 02:17:27;;;;;;;1.83;1.33;;;5.00;99.90;;;;;;5045805;28;20017;-48
2021/01/23 02:20:05;;;;;;;1.35;1.00;;;5.00;99.90;;;;;;5045095;28;20100;-52
2021/01/23 02:23:09;;;;;;;1.58;0.95;;;5.00;99.90;;;;;;5045482;28;20063;-50
2021/01/23 02:25:59;;;;;;;2.13;1.00;;;5.00;99.90;;;;;;5045818;28;20029;-49
2021/01/23 02:28:56;;;;;;;0.80;0.80;;;5.00;99.90;;;;;;5006975;28;20430;-50
2021/01/23 02:31:26;;;;;;;1.95;1.10;;;5.00;99.90;;;;;;5045560;28;20083;-48
2021/01/23 02:33:54;;;;;;;0.95;0.70;;;5.10;99.90;;;;;;5045370;28;20025;-51
2021/01/23 02:36:22;;;;;;;2.17;1.23;;;5.10;99.90;;;;;;5045494;28;20058;-48
2021/01/23 02:38:49;;;;;;;3.10;1.10;;;5.10;99.90;;;;;;5045064;28;20028;-51
2021/01/23 02:41:16;;;;;;;4.03;2.17;;;5.20;99.90;;;;;;5045280;28;20075;-51
2021/01/23 02:43:45;;;;;;;3.97;2.17;;;4.90;99.90;;;;;;5045562;28;20041;-49
2021/01/23 02:46:15;;;;;;;5.60;2.67;;;4.80;99.90;;;;;;5044846;28;20407;-48
2021/01/23 02:48:42;;;;;;;4.60;2.33;;;5.10;99.90;;;;;;5045005;28;20029;-49
2021/01/23 02:51:29;;;;;;;4.60;2.85;;;5.30;99.90;;;;;;5045655;28;20029;-50
2021/01/23 02:54:05;;;;;;;7.55;3.05;;;5.30;99.90;;;;;;5044663;28;20029;-48
2021/01/23 02:56:33;;;;;;;5.60;2.58;;;5.30;99.90;;;;;;5045018;28;20082;-48
2021/01/23 02:59:02;;;;;;;7.18;2.95;;;5.20;99.90;;;;;;5044387;28;20021;-49
2021/01/23 03:01:34;;;;;;;4.55;1.90;;;5.30;99.90;;;;;;5045036;28;20036;-49
2021/01/23 03:04:01;;;;;;;3.65;1.58;;;5.50;99.90;;;;;;5044378;28;20048;-49
2021/01/23 03:06:30;;;;;;;3.58;1.60;;;5.30;99.90;;;;;;5044937;28;20036;-50
2021/01/23 03:08:57;;;;;;;2.28;1.50;;;5.40;99.90;;;;;;5044689;28;20383;-53
2021/01/23 03:11:24;;;;;;;3.00;1.55;;;5.40;99.90;;;;;;5044858;28;20098;-52
2021/01/23 03:13:50;;;;;;;1.42;0.98;;;5.60;99.90;;;;;;5044872;28;20025;-47
2021/01/23 03:16:17;;;;;;;2.67;1.20;;;5.50;99.90;;;;;;5044638;28;20280;-49
2021/01/23 03:18:42;;;;;;;3.30;1.65;;;5.50;99.90;;;;;;5044580;28;20384;-53
2021/01/23 03:21:08;;;;;;;4.95;2.30;;;5.10;99.90;;;;;;5044970;28;20079;-52
2021/01/23 03:23:33;;;;;;;3.45;1.92;;;5.10;99.90;;;;;;5045394;28;20090;-50
2021/01/23 03:25:59;;;;;;;3.60;1.92;;;5.20;99.90;;;;;;5044340;28;20063;-51
2021/01/23 03:28:25;;;;;;;3.40;1.95;;;5.20;99.90;;;;;;5044681;28;20072;-52
2021/01/23 03:30:50;;;;;;;2.40;1.50;;;5.20;99.90;;;;;;5044493;28;20025;-51
2021/01/23 03:33:16;;;;;;;3.38;1.38;;;5.20;99.90;;;;;;5044803;28;20037;-52
2021/01/23 03:35:43;;;;;;;1.58;1.20;;;5.00;99.90;;;;;;5044450;28;20561;-51
2021/01/23 03:38:09;;;;;;;1.90;0.95;;;4.80;99.90;;;;;;5043690;28;20033;-49
2021/01/23 03:40:35;;;;;;;2.38;1.30;;;5.10;99.90;;;;;;5045185;28;20033;-50
2021/01/23 03:43:00;;;;;;;1.33;1.00;;;5.20;99.90;;;;;;5044468;28;20017;-49
2021/01/23 03:45:27;;;;;;;3.42;1.10;;;5.30;99.90;;;;;;5044456;28;20021;-52
2021/01/23 03:47:52;;;;;;;2.00;1.23;;;5.20;99.90;;;;;;5044128;28;20457;-49
2021/01/23 03:50:19;;;;;;;1.90;1.42;;;5.20;99.90;;;;;;5044355;28;20028;-48
2021/01/23 03:52:45;;;;;;;2.88;1.45;;;5.20;99.90;;;;;;5044552;28;20042;-49
2021/01/23 03:55:11;;;;;;;3.35;1.40;;;5.30;99.90;;;;;;5043957;28;20387;-48
2021/01/23 03:57:37;;;;;;;3.13;1.40;;;5.30;99.90;;;;;;5044941;28;20096;-49
2021/01/23 04:00:05;;;;;;;3.30;1.20;;;5.40;99.90;;;;;;5043669;28;20025;-50
2021/01/23 04:02:31;;;;;;;2.17;1.00;;;5.30;99.90;;;;;;5044002;28;20038;-49
2021/01/23 04:04:56;;;;;;;2.15;1.00;;;5.20;99.90;;;;;;5043831;28;20033;-48
2021/01/23 04:07:22;;;;;;;1.33;0.80;;;5.10;99.90;;;;;;5044321;28;20025;-48
2021/01/23 04:09:49;;;;;;;1.27;0.95;;;5.10;99.90;;;;;;5043929;28;20523;-49
2021/01/23 04:12:14;;;;;;;2.55;1.17;;;5.10;99.90;;;;;;5044346;28;20116;-50
2021/01/23 04:14:41;;;;;;;4.80;1.13;;;5.20;99.90;;;;;;5044459;28;20108;-50
2021/01/23 04:17:06;;;;;;;2.63;1.10;;;5.20;99.90;;;;;;5044524;28;20510;-49
2021/01/23 04:19:32;;;;;;;2.35;0.98;;;5.30;99.90;;;;;;5044307;28;20056;-48
2021/01/23 04:21:58;;;;;;;2.25;1.30;;;5.20;99.90;;;;;;5043857;28;20136;-50
2021/01/23 04:24:23;;;;;;;1.95;1.20;;;5.00;99.90;;;;;;5044587;28;20021;-49
2021/01/23 04:26:49;;;;;;;2.45;1.45;;;4.90;99.90;;;;;;5043846;28;20544;-50
2021/01/23 04:29:15;;;;;;;4.75;1.15;;;4.60;99.90;;;;;;5042707;28;20499;-49
2021/01/23 04:31:41;;;;;;;4.72;1.33;;;4.60;99.90;;;;;;5044024;28;20032;-51
2021/01/23 04:34:06;;;;;;;3.42;1.77;;;4.50;99.90;;;;;;5044228;28;20021;-48
2021/01/23 04:36:32;;;;;;;2.00;1.30;;;4.30;99.90;;;;;;5044271;28;20025;-48
2021/01/23 04:38:58;;;;;;;4.47;1.88;;;4.40;99.90;;;;;;5043674;28;20052;-51
2021/01/23 04:41:28;;;;;;;3.50;1.50;;;4.30;99.90;;;;;;5044069;28;20039;-49
2021/01/23 04:43:55;;;;;;;3.78;1.77;;;4.30;99.90;;;;;;5043842;28;20098;-49
2021/01/23 04:46:21;;;;;;;2.33;1.45;;;4.30;99.90;;;;;;5043839;28;20096;-51
2021/01/23 04:48:48;;;;;;;2.53;1.33;;;4.20;99.90;;;;;;5045183;28;20026;-50
2021/01/23 04:51:14;;;;;;;2.22;1.33;;;4.30;99.90;;;;;;5047564;28;20089;-49
2021/01/23 04:53:40;;;;;;;2.50;1.45;;;4.30;99.90;;;;;;5047652;28;20136;-49
2021/01/23 04:56:06;;;;;;;2.08;0.90;;;4.30;99.90;;;;;;5047792;28;20025;-48
2021/01/23 04:58:32;;;;;;;1.48;0.88;;;4.30;99.90;;;;;;5047090;28;20495;-49
2021/01/23 05:00:57;;;;;;;1.92;0.90;;;4.40;99.90;;;;;;5046748;28;20036;-49
2021/01/23 05:03:24;;;;;;;2.05;0.90;;;4.40;99.90;;;;;;5052495;28;20125;-51
2021/01/23 05:06:08;;;;;;;2.42;0.80;;;4.30;99.90;;;;;;5067230;28;20360;-49
2021/01/23 05:08:38;;;;;;;1.20;0.93;;;4.40;99.90;;;;;;5066844;28;20028;-50
2021/01/23 05:11:05;;;;;;;1.08;0.70;;;4.40;99.90;;;;;;5067374;28;20064;-49
2021/01/23 05:13:31;;;;;;;3.88;0.85;;;4.40;99.90;;;;;;5067665;28;20021;-49
2021/01/23 05:15:58;;;;;;;0.75;0.60;;;4.50;99.90;;;;;;5066520;28;20028;-49
2021/01/23 05:18:24;;;;;;;2.45;0.90;;;4.50;99.90;;;;;;5066827;28;20021;-51
2021/01/23 05:20:51;;;;;;;1.13;0.80;;;4.50;99.90;;;;;;5066207;28;20466;-48
2021/01/23 05:23:22;;;;;;;2.65;0.90;;;4.40;99.90;;;;;;5067061;28;20025;-51
2021/01/23 05:25:54;;;;;;;0.98;0.70;;;4.30;99.90;;;;;;5066642;28;20025;-50
2021/01/23 05:28:28;;;;;;;1.52;0.80;;;4.20;99.90;;;;;;5066971;28;20077;-50
2021/01/23 05:30:55;;;;;;;1.75;0.80;;;4.20;99.90;;;;;;5066605;28;20062;-52
2021/01/23 05:33:35;;;;;;;0.85;0.68;;;4.40;99.90;;;;;;5066738;28;20276;-51
2021/01/23 05:36:07;;;;;;;1.23;0.80;;;4.60;99.90;;;;;;5066286;28;20082;-49
2021/01/23 05:38:38;;;;;;;3.03;0.80;;;4.50;99.90;;;;;;5066574;28;20036;-49
2021/01/23 05:41:03;;;;;;;1.35;0.60;;;4.40;99.90;;;;;;5065864;28;20032;-51
2021/01/23 05:43:33;;;;;;;2.05;0.85;;;4.50;99.90;;;;;;5048491;28;20028;-51
2021/01/23 05:46:01;;;;;;;1.88;1.10;;;4.50;99.90;;;;;;5065934;28;20029;-52
2021/01/23 05:48:27;;;;;;;3.15;1.55;;;4.50;99.90;;;;;;5066587;28;20028;-49
2021/01/23 05:50:53;;;;;;;2.67;1.10;;;4.50;99.90;;;;;;5066328;28;20054;-52
2021/01/23 05:53:19;;;;;;;2.90;1.25;;;4.30;99.90;;;;;;5066859;28;20020;-52
2021/01/23 05:55:45;;;;;;;1.63;1.00;;;4.10;99.90;;;;;;5066106;28;20033;-51
2021/01/23 05:58:12;;;;;;;1.95;1.17;;;4.30;99.90;;;;;;5065801;28;20024;-51
2021/01/23 06:00:39;;;;;;;3.42;1.80;;;4.50;99.90;;;;;;5065211;28;20452;-49
2021/01/23 06:03:04;;;;;;;3.42;1.85;;;4.40;99.90;;;;;;5066720;28;20021;-52
2021/01/23 06:05:30;;;;;;;5.60;2.33;;;4.30;99.90;;;;;;5066386;28;20089;-50
2021/01/23 06:07:56;;;;;;;5.78;2.40;;;4.30;99.90;;;;;;5066251;28;20029;-49
2021/01/23 06:10:21;;;;;;;7.97;3.30;;;4.30;99.90;;;;;;5065957;28;20315;-49
2021/01/23 06:12:52;;;;;;;6.07;2.60;;;4.20;99.90;;;;;;5065652;28;20021;-51
2021/01/23 06:15:33;;;;;;;8.20;3.28;;;4.30;99.90;;;;;;5065393;28;20028;-52
2021/01/23 06:18:04;;;;;;;6.85;3.30;;;4.20;99.90;;;;;;5065372;28;20422;-51
2021/01/23 06:20:42;;;;;;;7.25;3.10;;;4.30;99.90;;;;;;5064783;28;20510;-52
2021/01/23 06:23:09;;;;;;;4.40;2.78;;;4.20;99.90;;;;;;5065134;28;20020;-49
2021/01/23 06:25:50;;;;;;;7.28;3.03;;;4.20;99.90;;;;;;5066782;28;20028;-49
2021/01/23 06:28:21;;;;;;;4.80;3.03;;;4.30;99.90;;;;;;5065710;28;20433;-49
2021/01/23 06:30:49;;;;;;;4.25;2.53;;;4.40;99.90;;;;;;5065068;28;20024;-49
2021/01/23 06:33:23;;;;;;;4.00;2.10;;;4.40;99.90;;;;;;5065800;28;20020;-50
2021/01/23 06:36:10;;;;;;;3.53;2.30;;;4.30;99.90;;;;;;5065491;28;20036;-50
2021/01/23 06:38:37;;;;;;;4.25;2.28;;;4.40;99.90;;;;;;5065096;28;20031;-51
2021/01/23 06:41:24;;;;;;;4.05;2.42;;;4.30;99.90;;;;;;5065964;28;20025;-48
2021/01/23 06:44:08;;;;;;;3.17;2.25;;;4.00;99.90;;;;;;5065046;28;20067;-49
2021/01/23 06:46:35;;;;;;;4.95;2.70;;;3.90;99.90;;;;;;5065816;28;20074;-49
2021/01/23 06:49:05;;;;;;;4.00;2.70;;;4.00;99.90;;;;;;5065731;28;20051;-52
2021/01/23 06:51:31;;;;;;;1.73;1.58;;;4.00;99.90;;;;;;5067339;28;20024;-52
2021/01/23 06:54:11;;;;;;;3.28;1.98;;;4.00;99.90;;;;;;5058106;28;20082;-51
2021/01/23 06:56:37;;;;;;;2.67;1.77;;;3.80;99.90;;;;;;5046559;28;20086;-53
2021/01/23 06:59:03;;;;;;;3.42;1.88;;;3.80;99.90;;;;;;5046470;28;20021;-52
2021/01/23 07:01:29;;;;;;;2.72;1.67;;;4.00;99.90;;;;;;5054507;28;20035;-51
2021/01/23 07:03:55;;;;;;;2.88;1.58;;;3.90;99.90;;;;;;5066260;28;20024;-50
2021/01/23 07:06:30;;;;;;;3.10;1.60;;;3.90;99.90;;;;;;5065967;28;20055;-51
2021/01/23 07:08:56;;;;;;;1.88;1.10;;;4.00;99.90;;;;;;5046152;28;20033;-53
2021/01/23 07:11:22;;;;;;;1.70;1.10;;;4.10;99.90;;;;;;5046490;28;20112;-50
2021/01/23 07:14:06;;;;;;;1.13;0.85;;;4.10;99.90;;;;;;5065528;28;20036;-51
2021/01/23 07:16:37;;;;;;;3.90;1.15;;;4.10;99.90;;;;;;5065803;28;20025;-51
2021/01/23 07:19:09;;;;;;;0.80;0.77;;;4.00;99.90;;;;;;5063064;28;20371;-53
2021/01/23 07:21:38;;;;;;;1.80;0.80;;;4.00;99.90;;;;;;5066407;28;20036;-53
2021/01/23 07:24:04;;;;;;;2.47;1.10;;;4.00;99.90;;;;;;5065706;28;20773;-49
2021/01/23 07:26:33;;;;;;;2.53;1.55;;;4.10;99.90;;;;;;5065704;28;20028;-50
2021/01/23 07:28:59;;;;;;;1.33;1.10;;;4.10;99.90;;;;;;5065797;28;20089;-50
2021/01/23 07:31:29;;;;;;;0.80;0.80;;;4.00;99.90;;;;;;5066210;28;20044;-50
2021/01/23 07:33:57;;;;;;;1.42;0.98;;;4.00;99.90;;;;;;5063698;28;20074;-52
2021/01/23 07:36:29;;;;;;;2.00;1.27;;;3.90;99.90;;;;;;5064551;28;20042;-52
2021/01/23 07:38:56;;;;;;;1.20;1.02;;;4.00;99.90;;;;;;5058519;28;20128;-51
2021/01/23 07:41:22;;;;;;;4.30;1.30;;;4.00;99.90;;;;;;5064360;28;20021;-53
2021/01/23 07:43:48;;;;;;;2.90;1.58;;;4.00;99.90;;;;;;5064755;28;20025;-51
2021/01/23 07:46:15;;;;;;;2.65;1.70;;;3.50;99.90;;;;;;5062744;28;20036;-51
2021/01/23 07:48:41;;;;;;;2.53;1.30;;;3.80;99.90;;;;;;5059506;28;20051;-53
2021/01/23 07:51:07;;;;;;;2.20;1.40;;;3.90;99.90;;;;;;5063189;28;20037;-53
2021/01/23 07:53:33;;;;;;;3.40;1.52;;;4.00;99.90;;;;;;5047226;28;20555;-50
2021/01/23 07:55:59;;;;;;;3.78;1.48;;;3.70;99.90;;;;;;5064937;28;20025;-51
2021/01/23 07:58:26;;;;;;;2.72;1.35;;;3.90;99.90;;;;;;5064407;28;21294;-53
2021/01/23 08:00:52;;;;;;;2.15;1.25;;;4.00;99.90;;;;;;5062753;28;20024;-51
2021/01/23 08:03:17;;;;;;;3.28;2.05;;;4.10;99.90;;;;;;5065818;28;20051;-50
2021/01/23 08:05:57;;;;;;;2.70;1.33;;;4.00;99.90;;;;;;5064844;28;20029;-52
2021/01/23 08:08:32;;;;;;;3.45;2.00;;;3.90;99.90;;;;;;5064629;28;20166;-51
2021/01/23 08:10:58;;;;;;;5.50;2.53;;;3.80;99.90;;;;;;5064758;28;20631;-50
2021/01/23 08:13:29;;;;;;;4.13;2.30;;;3.90;99.90;;;;;;5062232;28;20024;-53
2021/01/23 08:16:10;;;;;;;4.95;2.50;;;4.20;99.90;;;;;;5064546;28;20060;-49
2021/01/23 08:18:36;;;;;;;5.82;3.05;;;4.20;99.90;;;;;;5063238;28;20024;-52
2021/01/23 08:21:02;;;;;;;6.25;2.75;;;4.30;99.90;;;;;;5064896;28;20069;-52
2021/01/23 08:23:33;;;;;;;8.93;3.25;;;4.30;99.90;;;;;;5066471;28;20413;-50
2021/01/23 08:26:00;;;;;;;5.60;2.40;;;4.20;99.90;;;;;;5067936;28;20044;-53
2021/01/23 08:28:34;;;;;;;4.43;2.47;;;4.40;99.90;;;;;;5070114;28;20037;-52
2021/01/23 08:31:12;;;;;;;3.08;1.80;;;4.40;99.90;;;;;;5067991;28;20032;-53
2021/01/23 08:33:38;;;;;;;3.15;1.73;;;4.70;99.90;;;;;;5068887;28;20074;-52
2021/01/23 08:36:04;;;;;;;2.50;1.40;;;4.70;99.90;;;;;;5056586;28;20032;-50
2021/01/23 08:38:31;;;;;;;2.72;1.67;;;4.80;99.90;;;;;;5064160;28;20391;-52
2021/01/23 08:40:56;;;;;;;3.22;2.00;;;4.90;99.90;;;;;;5069408;28;20028;-51
2021/01/23 08:43:22;;;;;;;4.70;1.80;;;5.10;99.90;;;;;;5067974;28;20493;-53
2021/01/23 08:45:47;;;;;;;2.40;1.65;;;5.10;99.90;;;;;;5063137;28;20066;-53
2021/01/23 08:48:13;;;;;;;2.00;1.25;;;5.30;99.90;;;;;;5068463;28;20085;-51
2021/01/23 08:50:39;;;;;;;3.28;1.88;;;5.10;99.90;;;;;;5068910;28;20047;-52
2021/01/23 08:53:04;;;;;;;4.28;2.42;;;5.20;99.90;;;;;;5068180;28;20039;-49
2021/01/23 08:55:30;;;;;;;4.03;1.92;;;5.20;99.90;;;;;;5067898;28;20036;-52
2021/01/23 08:57:56;;;;;;;2.13;1.30;;;5.20;99.90;;;;;;5068373;28;20024;-52
2021/01/23 09:00:21;;;;;;;2.03;1.17;;;5.20;99.90;;;;;;5065398;28;20029;-54
2021/01/23 09:02:47;;;;;;;2.55;0.90;;;5.20;99.90;;;;;;5068364;28;20025;-53
2021/01/23 09:05:13;;;;;;;4.20;1.08;;;5.20;99.90;;;;;;5067391;28;20029;-53
2021/01/23 09:07:39;;;;;;;1.13;0.75;;;5.20;99.90;;;;;;5067550;28;20062;-52
2021/01/23 09:10:10;;;;;;;2.15;1.38;;;5.30;99.90;;;;;;5068763;28;20040;-52
2021/01/23 09:12:36;;;;;;;2.60;1.13;;;5.30;99.90;;;;;;5069514;28;20529;-53
2021/01/23 09:15:04;;;;;;;1.42;1.00;;;5.30;99.90;;;;;;5068740;28;20060;-54
2021/01/23 09:17:30;;;;;;;1.05;0.73;;;5.30;99.90;;;;;;5070108;28;20028;-53
2021/01/23 09:19:56;;;;;;;1.15;0.90;;;5.30;99.90;;;;;;5065559;28;20036;-52
2021/01/23 09:22:21;;;;;;;2.70;0.98;;;5.30;99.90;;;;;;5069087;28;20105;-53
2021/01/23 09:24:47;;;;;;;1.48;1.00;;;5.20;99.90;;;;;;5062796;28;20532;-53
2021/01/23 09:27:13;;;;;;;1.65;1.10;;;5.30;99.90;;;;;;5063896;28;20032;-53
2021/01/23 09:29:39;;;;;;;1.55;1.10;;;5.20;99.90;;;;;;5067153;28;20032;-52
2021/01/23 09:32:06;;;;;;;1.20;1.00;;;5.10;99.90;;;;;;5066876;28;20037;-53
2021/01/23 09:34:33;;;;;;;4.25;1.50;;;5.00;99.90;;;;;;5068506;28;20032;-53
2021/01/23 09:36:59;;;;;;;2.15;1.50;;;4.90;99.90;;;;;;5064402;28;20044;-52
2021/01/23 09:39:25;;;;;;;1.60;1.10;;;4.90;99.90;;;;;;5067022;28;20037;-53
2021/01/23 09:41:52;;;;;;;2.88;1.08;;;5.00;99.90;;;;;;5066378;28;20020;-53
2021/01/23 09:44:17;;;;;;;3.88;1.05;;;5.10;99.90;;;;;;5068504;28;20051;-52
2021/01/23 09:46:43;;;;;;;1.45;0.95;;;5.20;99.90;;;;;;5058574;28;20079;-53
2021/01/23 09:49:09;;;;;;;3.22;1.23;;;5.20;99.90;;;;;;5058523;28;20038;-52
2021/01/23 09:51:34;;;;;;;2.88;1.17;;;5.30;99.90;;;;;;5067267;28;20563;-51
2021/01/23 09:54:00;;;;;;;2.30;1.33;;;5.30;99.90;;;;;;5067062;28;20040;-52
2021/01/23 09:56:26;;;;;;;1.55;1.00;;;5.30;99.90;;;;;;5067397;28;20066;-51
2021/01/23 09:58:51;;;;;;;2.58;1.00;;;5.40;99.90;;;;;;5047991;28;20086;-52
2021/01/23 10:01:17;;;;;;;1.63;0.80;;;5.40;99.90;;;;;;5052656;28;20025;-53
2021/01/23 10:03:43;;;;;;;2.45;1.05;;;5.40;99.90;;;;;;5060818;28;20104;-51
2021/01/23 10:06:09;;;;;;;2.92;1.30;;;5.30;99.90;;;;;;5067366;28;20039;-54
2021/01/23 10:08:35;;;;;;;2.35;0.90;;;5.30;99.90;;;;;;5068156;28;20377;-53
2021/01/23 10:11:00;;;;;;;2.28;1.08;;;5.30;99.90;;;;;;5060207;28;20025;-52
2021/01/23 10:13:26;;;;;;;4.13;1.20;;;5.30;99.90;;;;;;5050778;28;20068;-53
2021/01/23 10:15:52;;;;;;;1.52;1.00;;;5.30;99.90;;;;;;5047347;28;20544;-53
2021/01/23 10:18:17;;;;;;;1.83;1.08;;;5.40;99.90;;;;;;5048262;28;20056;-53
2021/01/23 10:20:43;;;;;;;2.45;1.15;;;5.30;99.90;;;;;;5048383;28;20021;-54
2021/01/23 10:23:09;;;;;;;2.40;1.08;;;5.40;99.90;;;;;;5056008;28;20063;-52
2021/01/23 10:25:35;;;;;;;3.20;1.20;;;5.40;99.90;;;;;;5067688;28;20161;-54
2021/01/23 10:28:00;;;;;;;3.65;1.30;;;5.30;99.90;;;;;;5067956;28;20124;-53
2021/01/23 10:30:26;;;;;;;1.60;1.05;;;5.30;99.90;;;;;;5068136;28;20498;-53
2021/01/23 10:32:52;;;;;;;4.43;1.48;;;5.40;99.90;;;;;;5067728;28;20055;-53
2021/01/23 10:35:18;;;;;;;3.00;1.35;;;5.40;99.90;;;;;;5067694;28;20506;-53
2021/01/23 10:37:43;;;;;;;3.28;1.50;;;5.40;99.90;;;;;;5067737;28;20426;-50
2021/01/23 10:40:09;;;;;;;2.55;1.40;;;5.40;99.90;;;;;;5067806;28;20109;-52
2021/01/23 10:42:35;;;;;;;3.45;1.88;;;5.40;99.90;;;;;;5065903;28;20447;-51
2021/01/23 10:45:03;;;;;;;5.32;1.60;;;5.30;99.90;;;;;;5061574;28;20077;-52
2021/01/23 10:47:28;;;;;;;2.00;1.35;;;5.30;99.90;;;;;;5065715;28;20032;-52
2021/01/23 10:49:54;;;;;;;3.25;1.50;;;5.30;99.90;;;;;;5057443;28;20029;-51
2021/01/23 10:52:20;;;;;;;2.17;1.70;;;5.40;99.90;;;;;;5046256;28;20064;-52
2021/01/23 10:54:46;;;;;;;3.97;1.88;;;5.40;99.90;;;;;;5045685;28;20029;-52
2021/01/23 10:57:11;;;;;;;3.30;1.75;;;5.40;99.90;;;;;;5045931;28;20025;-51
2021/01/23 10:59:37;;;;;;;3.08;1.65;;;5.40;99.90;;;;;;5045662;28;20044;-51
2021/01/23 11:02:03;;;;;;;2.42;1.38;;;5.40;99.90;;;;;;5050030;28;20024;-53
2021/01/23 11:04:29;;;;;;;2.30;1.70;;;5.40;99.90;;;;;;5066156;28;20414;-53
2021/01/23 11:06:55;;;;;;;3.67;1.95;;;5.50;99.90;;;;;;5065684;28;20390;-54
2021/01/23 11:09:21;;;;;;;4.45;2.15;;;5.40;99.90;;;;;;5066244;28;20224;-53
2021/01/23 11:11:47;;;;;;;2.33;1.70;;;5.50;99.90;;;;;;5065571;28;20451;-50
2021/01/23 11:14:12;;;;;;;4.07;2.55;;;5.50;99.90;;;;;;5065679;28;20040;-53
2021/01/23 11:16:39;;;;;;;6.93;2.95;;;5.50;99.90;;;;;;5065627;28;20030;-52
2021/01/23 11:19:05;;;;;;;5.45;2.92;;;5.50;99.90;;;;;;5065411;28;20029;-52
2021/01/23 11:21:30;;;;;;;4.60;2.78;;;5.40;99.90;;;;;;5066752;28;20339;-50
2021/01/23 11:23:56;;;;;;;6.65;2.72;;;5.50;99.90;;;;;;5065329;28;20044;-50
2021/01/23 11:26:22;;;;;;;4.80;2.72;;;5.50;99.90;;;;;;5065583;28;20078;-52
2021/01/23 11:28:48;;;;;;;4.43;2.28;;;5.50;99.90;;;;;;5065107;28;20103;-51
2021/01/23 11:31:13;;;;;;;3.05;1.98;;;5.60;99.90;;;;;;5065625;28;20387;-51
2021/01/23 11:33:40;;;;;;;2.50;1.60;;;5.70;99.90;;;;;;5066110;28;20035;-53
2021/01/23 11:36:06;;;;;;;5.63;1.67;;;5.90;99.90;;;;;;5065100;28;20516;-50
2021/01/23 11:38:32;;;;;;;3.00;1.60;;;6.10;99.90;;;;;;5066000;28;20113;-52
2021/01/23 11:40:57;;;;;;;4.93;1.88;;;6.30;99.90;;;;;;5065133;28;20444;-49
2021/01/23 11:43:23;;;;;;;4.63;2.05;;;6.40;99.90;;;;;;5065184;28;20021;-53
2021/01/23 11:45:49;;;;;;;3.85;2.15;;;6.20;99.90;;;;;;5065047;28;20028;-52
2021/01/23 11:48:15;;;;;;;3.88;1.90;;;6.10;99.90;;;;;;5061112;28;20029;-50
2021/01/23 11:50:41;;;;;;;3.47;1.90;;;6.00;99.90;;;;;;5071088;28;20036;-52
2021/01/23 11:53:06;;;;;;;1.92;1.42;;;6.00;99.90;;;;;;5082465;28;20032;-51
2021/01/23 11:55:32;;;;;;;4.07;1.50;;;6.00;99.90;;;;;;5070313;28;20037;-52
2021/01/23 11:57:58;;;;;;;5.10;1.88;;;6.00;99.90;;;;;;5064137;28;20023;-53
2021/01/23 12:00:24;;;;;;;2.65;1.00;;;5.90;99.90;;;;;;5068031;28;20530;-51
2021/01/23 12:02:50;;;;;;;3.70;1.25;;;5.90;99.90;;;;;;5069272;28;20107;-50
2021/01/23 12:05:19;;;;;;;2.50;1.30;;;5.80;99.90;;;;;;5070709;28;20483;-52
2021/01/23 12:07:46;;;;;;;4.65;2.10;;;5.80;99.90;;;;;;5069834;28;20182;-52
2021/01/23 12:10:14;;;;;;;5.80;1.80;;;5.70;99.90;;;;;;5070346;28;20089;-51
2021/01/23 12:12:39;;;;;;;2.67;1.33;;;5.70;99.90;;;;;;5068705;28;20060;-49
2021/01/23 12:15:06;;;;;;;7.32;1.50;;;5.70;99.90;;;;;;5069072;28;20071;-50
2021/01/23 12:17:32;;;;;;;4.75;1.38;;;5.70;99.90;;;;;;5070553;28;20091;-52
2021/01/23 12:19:58;;;;;;;4.68;1.42;;;5.70;99.90;;;;;;5070211;28;20478;-51
2021/01/23 12:22:23;;;;;;;5.38;2.20;;;5.70;99.90;;;;;;5069743;28;20099;-52
2021/01/23 12:24:49;;;;;;;3.05;1.13;;;5.70;99.90;;;;;;5070010;28;20090;-51
2021/01/23 12:27:15;;;;;;;3.42;1.30;;;5.70;99.90;;;;;;5070036;28;20513;-52
2021/01/23 12:29:40;;;;;;;2.80;1.35;;;5.60;99.90;;;;;;5070224;28;20918;-51
2021/01/23 12:32:08;;;;;;;2.92;1.45;;;5.60;99.90;;;;;;5069609;28;20478;-52
2021/01/23 12:34:34;;;;;;;2.15;0.98;;;5.70;99.90;;;;;;5070150;28;20086;-49
2021/01/23 12:36:59;;;;;;;3.38;1.40;;;5.50;99.90;;;;;;5069391;28;20025;-47
2021/01/23 12:39:25;;;;;;;2.58;1.42;;;5.50;99.90;;;;;;5068793;28;20036;-49
2021/01/23 12:41:51;;;;;;;3.72;1.42;;;5.40;99.90;;;;;;5069446;28;20107;-50
2021/01/23 12:44:18;;;;;;;2.13;0.90;;;5.50;99.90;;;;;;5068348;28;20107;-49
2021/01/23 12:46:44;;;;;;;2.15;1.10;;;5.70;99.90;;;;;;5068478;28;20115;-48
2021/01/23 12:49:10;;;;;;;2.10;0.90;;;6.00;99.90;;;;;;5066841;28;20741;-50
2021/01/23 12:51:37;;;;;;;4.10;1.17;;;6.30;99.90;;;;;;5067460;28;20036;-49
2021/01/23 12:54:03;;;;;;;3.47;1.30;;;6.60;99.90;;;;;;5067555;28;20028;-48
2021/01/23 12:56:28;;;;;;;2.30;0.90;;;6.70;99.90;;;;;;5069309;28;20024;-48
2021/01/23 12:58:54;;;;;;;1.30;0.85;;;6.60;99.90;;;;;;5071766;28;20417;-49
2021/01/23 13:01:20;;;;;;;3.00;1.23;;;6.60;99.90;;;;;;5062099;28;20036;-49